Time;durP1;ratioP1;P1;durP2;ratioP2;P2;SDS_P1;SDS_P2;PMS_P1;PMS_P2;Temp;Humidity;BMP_temperature;BMP_pressure;BME280_temperature;BME280_humidity;BME280_pressure;Samples;Min_cycle;Max_cycle;Signal;HPM_P1;HPM_P2
2021/09/07 00:00:42;;;;;;;20.40;9.82;;;20.50;78.60;;;;;;5045674;28;20025;-74
2021/09/07 00:03:08;;;;;;;18.83;9.50;;;20.50;78.60;;;;;;5032162;28;20068;-74
2021/09/07 00:05:33;;;;;;;15.23;9.52;;;20.50;78.70;;;;;;5033984;28;20017;-74
2021/09/07 00:07:59;;;;;;;14.27;9.23;;;20.50;78.60;;;;;;5044031;28;20479;-75
2021/09/07 00:10:25;;;;;;;19.25;10.50;;;20.50;78.60;;;;;;5040446;28;20037;-75
2021/09/07 00:12:51;;;;;;;14.20;9.50;;;20.50;78.70;;;;;;5046009;28;20477;-75
2021/09/07 00:15:18;;;;;;;18.25;9.77;;;20.50;78.80;;;;;;5039972;28;20079;-74
2021/09/07 00:17:45;;;;;;;17.95;9.70;;;20.50;78.90;;;;;;5036848;28;20025;-74
2021/09/07 00:20:11;;;;;;;16.73;8.63;;;20.50;78.90;;;;;;5034972;28;20042;-74
2021/09/07 00:22:37;;;;;;;16.33;9.10;;;20.50;78.80;;;;;;5033051;28;20477;-74
2021/09/07 00:25:06;;;;;;;16.27;9.52;;;20.40;78.70;;;;;;5039131;28;20025;-74
2021/09/07 00:27:31;;;;;;;15.15;9.35;;;20.50;78.80;;;;;;5038314;28;20034;-74
2021/09/07 00:29:58;;;;;;;15.25;9.43;;;20.40;78.70;;;;;;5036122;28;20039;-75
2021/09/07 00:32:23;;;;;;;16.55;9.20;;;20.40;78.80;;;;;;5036156;28;20531;-75
2021/09/07 00:34:49;;;;;;;13.82;8.77;;;20.40;78.80;;;;;;5038410;28;20029;-74
2021/09/07 00:37:15;;;;;;;20.08;10.88;;;20.50;79.00;;;;;;5045955;28;20048;-75
2021/09/07 00:39:41;;;;;;;14.27;9.48;;;20.50;79.00;;;;;;5043841;28;20048;-75
2021/09/07 00:42:06;;;;;;;15.52;9.95;;;20.40;78.90;;;;;;5041934;28;20362;-75
2021/09/07 00:44:32;;;;;;;18.13;9.65;;;20.40;79.00;;;;;;5042529;28;20025;-74
2021/09/07 00:47:07;;;;;;;15.13;9.15;;;20.40;79.10;;;;;;5040425;28;20543;-74
2021/09/07 00:49:34;;;;;;;14.52;8.90;;;20.40;79.10;;;;;;5051475;28;20041;-75
2021/09/07 00:52:00;;;;;;;16.60;8.98;;;20.40;79.20;;;;;;5049750;28;20151;-74
2021/09/07 00:54:29;;;;;;;19.40;8.63;;;20.40;79.10;;;;;;5044130;28;20037;-75
2021/09/07 00:56:56;;;;;;;15.98;9.55;;;20.40;79.10;;;;;;5042043;28;20388;-75
2021/09/07 00:59:22;;;;;;;13.55;8.93;;;20.40;79.20;;;;;;5037557;28;20029;-74
2021/09/07 01:01:49;;;;;;;16.92;9.13;;;20.40;79.10;;;;;;5033400;28;20033;-74
2021/09/07 01:04:16;;;;;;;16.83;9.20;;;20.40;79.10;;;;;;5042467;28;20017;-74
2021/09/07 01:06:42;;;;;;;14.30;8.95;;;20.40;79.10;;;;;;5043275;28;20032;-75
2021/09/07 01:09:12;;;;;;;21.88;9.10;;;20.40;79.10;;;;;;5042078;28;20044;-74
2021/09/07 01:11:39;;;;;;;14.18;8.57;;;20.40;79.80;;;;;;5044375;28;20025;-74
2021/09/07 01:14:06;;;;;;;16.63;9.35;;;20.40;79.10;;;;;;5039866;28;20037;-74
2021/09/07 01:16:33;;;;;;;15.57;9.65;;;20.40;79.30;;;;;;5038462;28;20108;-74
2021/09/07 01:19:01;;;;;;;16.45;9.73;;;20.30;79.30;;;;;;5043515;28;20083;-75
2021/09/07 01:21:27;;;;;;;14.02;8.85;;;20.30;79.30;;;;;;5048322;28;20036;-74
2021/09/07 01:23:53;;;;;;;16.83;8.55;;;20.40;79.40;;;;;;5036876;28;20440;-74
2021/09/07 01:26:20;;;;;;;17.17;9.40;;;20.30;79.30;;;;;;5034159;28;20034;-74
2021/09/07 01:28:47;;;;;;;22.40;9.35;;;20.30;79.30;;;;;;5032568;28;20068;-74
2021/09/07 01:31:16;;;;;;;16.77;9.95;;;20.30;79.40;;;;;;5038852;28;20040;-74
2021/09/07 01:33:42;;;;;;;13.85;8.15;;;20.30;79.30;;;;;;5036677;28;20471;-74
2021/09/07 01:36:08;;;;;;;17.33;8.48;;;20.30;79.20;;;;;;5046354;28;20082;-74
2021/09/07 01:38:34;;;;;;;15.80;9.18;;;20.30;79.10;;;;;;5042829;28;20040;-74
2021/09/07 01:41:00;;;;;;;14.63;8.95;;;20.30;79.10;;;;;;5042457;28;20116;-74
2021/09/07 01:43:26;;;;;;;15.48;8.82;;;20.20;79.10;;;;;;5047105;28;20044;-74
2021/09/07 01:45:54;;;;;;;17.75;9.38;;;20.20;79.10;;;;;;5037180;28;20022;-74
2021/09/07 01:48:21;;;;;;;17.90;10.43;;;20.20;79.00;;;;;;5038278;28;20106;-74
2021/09/07 01:50:47;;;;;;;13.95;9.10;;;20.20;79.10;;;;;;5039031;28;20029;-73
2021/09/07 01:53:13;;;;;;;16.48;9.48;;;20.20;79.20;;;;;;5044595;28;20102;-75
2021/09/07 01:55:40;;;;;;;17.20;10.07;;;20.10;79.20;;;;;;5043339;28;20025;-75
2021/09/07 01:58:07;;;;;;;16.58;9.65;;;20.10;79.30;;;;;;5035025;28;20049;-76
2021/09/07 02:00:33;;;;;;;17.10;10.02;;;20.20;79.60;;;;;;5039030;28;20453;-74
2021/09/07 02:03:00;;;;;;;26.10;9.77;;;20.20;79.60;;;;;;5038824;28;20128;-74
2021/09/07 02:05:26;;;;;;;17.38;10.82;;;20.20;79.50;;;;;;5039253;28;20117;-74
2021/09/07 02:07:53;;;;;;;17.33;10.70;;;20.10;79.50;;;;;;5044471;28;20455;-72
2021/09/07 02:10:20;;;;;;;18.83;11.20;;;20.10;80.20;;;;;;5036727;28;20045;-72
2021/09/07 02:12:46;;;;;;;18.95;10.60;;;20.10;79.80;;;;;;5047966;28;20112;-72
2021/09/07 02:15:13;;;;;;;20.90;11.15;;;20.10;79.90;;;;;;5041101;28;20037;-72
2021/09/07 02:17:41;;;;;;;17.25;10.25;;;20.10;80.00;;;;;;5046856;28;20029;-72
2021/09/07 02:20:07;;;;;;;17.10;10.82;;;20.10;80.00;;;;;;5043874;28;20136;-73
2021/09/07 02:22:33;;;;;;;17.63;11.63;;;20.10;80.10;;;;;;5041637;28;20053;-72
2021/09/07 02:24:59;;;;;;;19.15;10.98;;;20.00;80.10;;;;;;5040622;28;20070;-72
2021/09/07 02:27:25;;;;;;;20.35;11.18;;;20.10;80.20;;;;;;5043891;28;20507;-72
2021/09/07 02:29:52;;;;;;;19.60;11.00;;;20.00;80.30;;;;;;5041649;28;20036;-72
2021/09/07 02:32:19;;;;;;;19.98;10.27;;;20.10;80.40;;;;;;5043922;28;20495;-73
2021/09/07 02:34:46;;;;;;;18.63;11.18;;;20.00;80.40;;;;;;5047205;28;20108;-73
2021/09/07 02:37:12;;;;;;;21.27;11.50;;;20.10;80.50;;;;;;5046868;28;20112;-72
2021/09/07 02:39:38;;;;;;;23.08;11.52;;;20.10;80.70;;;;;;5039702;28;20552;-72
2021/09/07 02:42:04;;;;;;;20.17;11.77;;;20.10;80.70;;;;;;5045159;28;20389;-73
2021/09/07 02:44:30;;;;;;;20.88;11.88;;;20.10;80.70;;;;;;5049417;28;20393;-73
2021/09/07 02:46:57;;;;;;;21.73;11.40;;;20.00;80.80;;;;;;5047380;28;20053;-73
2021/09/07 02:49:22;;;;;;;30.25;12.98;;;20.10;80.80;;;;;;5050930;28;20086;-72
2021/09/07 02:51:49;;;;;;;22.08;11.43;;;20.00;80.80;;;;;;5036551;28;20025;-72
2021/09/07 02:54:15;;;;;;;25.92;12.60;;;20.00;80.70;;;;;;5052278;28;20495;-72
2021/09/07 02:56:42;;;;;;;22.40;12.07;;;20.00;80.80;;;;;;5043796;28;20097;-72
2021/09/07 02:59:09;;;;;;;19.40;11.60;;;20.00;80.80;;;;;;5044961;28;20033;-72
2021/09/07 03:01:36;;;;;;;21.25;12.15;;;20.00;80.90;;;;;;5037842;28;20093;-72
2021/09/07 03:04:02;;;;;;;23.85;12.40;;;20.00;80.90;;;;;;5036569;28;20056;-72
2021/09/07 03:06:28;;;;;;;23.25;12.90;;;20.00;81.00;;;;;;5034075;28;20072;-71
2021/09/07 03:08:55;;;;;;;28.75;13.82;;;20.00;81.20;;;;;;5049729;28;20060;-71
2021/09/07 03:11:21;;;;;;;21.40;13.18;;;20.00;81.30;;;;;;5050915;28;20456;-72
2021/09/07 03:13:46;;;;;;;22.23;12.57;;;20.00;81.50;;;;;;5049419;28;20079;-76
2021/09/07 03:16:13;;;;;;;27.08;13.48;;;20.00;81.60;;;;;;5042749;28;20033;-72
2021/09/07 03:18:41;;;;;;;25.23;12.88;;;20.00;81.60;;;;;;5052484;28;20029;-73
2021/09/07 03:21:07;;;;;;;23.15;13.35;;;20.00;81.60;;;;;;5049121;28;20087;-73
2021/09/07 03:23:33;;;;;;;26.33;13.32;;;20.00;81.60;;;;;;5052458;28;20035;-73
2021/09/07 03:25:59;;;;;;;24.25;12.95;;;20.00;81.80;;;;;;5049651;28;20128;-73
2021/09/07 03:28:25;;;;;;;20.45;12.68;;;20.00;81.80;;;;;;5042172;28;20140;-73
2021/09/07 03:30:51;;;;;;;22.40;13.25;;;20.00;81.80;;;;;;5046265;28;20025;-73
2021/09/07 03:33:18;;;;;;;27.85;14.05;;;20.00;81.80;;;;;;5043597;28;20022;-73
2021/09/07 03:35:44;;;;;;;24.45;12.77;;;20.00;81.80;;;;;;5042428;28;20400;-73
2021/09/07 03:38:12;;;;;;;21.90;13.48;;;20.00;81.80;;;;;;5041830;28;20103;-73
2021/09/07 03:40:39;;;;;;;21.50;12.52;;;20.00;81.90;;;;;;5040931;28;20021;-72
2021/09/07 03:43:05;;;;;;;25.10;11.98;;;20.00;81.80;;;;;;5034800;28;20111;-73
2021/09/07 03:45:32;;;;;;;19.52;12.65;;;20.00;81.80;;;;;;5034384;28;20026;-73
2021/09/07 03:47:58;;;;;;;27.73;13.05;;;20.00;81.80;;;;;;5034467;28;20056;-73
2021/09/07 03:50:25;;;;;;;23.02;13.48;;;20.00;81.80;;;;;;5049254;28;20082;-73
2021/09/07 03:52:51;;;;;;;25.38;12.43;;;20.00;81.90;;;;;;5047958;28;20025;-73
2021/09/07 03:55:17;;;;;;;29.77;12.85;;;20.00;82.00;;;;;;5044325;28;20114;-72
2021/09/07 03:57:44;;;;;;;21.08;12.88;;;19.90;82.00;;;;;;5052698;28;20036;-73
2021/09/07 04:00:12;;;;;;;20.15;12.85;;;19.90;82.00;;;;;;5048492;28;20033;-73
2021/09/07 04:02:40;;;;;;;23.05;13.27;;;19.90;82.00;;;;;;5042721;28;20064;-73
2021/09/07 04:05:07;;;;;;;19.30;12.55;;;20.00;81.90;;;;;;5038803;28;20057;-73
2021/09/07 04:07:33;;;;;;;22.73;12.48;;;20.00;82.00;;;;;;5047204;28;20021;-73
2021/09/07 04:09:59;;;;;;;18.52;11.75;;;19.90;81.90;;;;;;5049731;28;20043;-73
2021/09/07 04:12:25;;;;;;;23.85;12.70;;;19.90;81.90;;;;;;5039257;28;20021;-73
2021/09/07 04:14:51;;;;;;;26.40;13.13;;;19.90;82.00;;;;;;5046248;28;20373;-73
2021/09/07 04:17:17;;;;;;;23.92;13.82;;;19.90;81.90;;;;;;5033822;28;20026;-73
2021/09/07 04:19:44;;;;;;;22.08;13.20;;;19.90;82.00;;;;;;5040772;28;20029;-73
2021/09/07 04:22:11;;;;;;;22.63;13.07;;;19.90;82.10;;;;;;5043480;28;20078;-73
2021/09/07 04:24:37;;;;;;;28.15;13.73;;;19.90;82.20;;;;;;5044337;28;20029;-73
2021/09/07 04:27:03;;;;;;;26.60;13.85;;;19.90;82.20;;;;;;5044413;28;20025;-73
2021/09/07 04:29:28;;;;;;;23.17;13.82;;;19.90;82.30;;;;;;5049955;28;20083;-73
2021/09/07 04:31:54;;;;;;;26.25;14.07;;;19.90;82.30;;;;;;5039215;28;20021;-73
2021/09/07 04:34:19;;;;;;;27.88;14.00;;;19.90;82.40;;;;;;5038499;28;20040;-74
2021/09/07 04:36:45;;;;;;;26.27;13.68;;;19.90;82.50;;;;;;5041960;28;20029;-73
2021/09/07 04:39:11;;;;;;;24.98;13.70;;;19.90;82.60;;;;;;5035445;28;20108;-71
2021/09/07 04:41:36;;;;;;;23.00;14.00;;;19.90;82.70;;;;;;5032833;28;20021;-71
2021/09/07 04:44:02;;;;;;;26.20;13.93;;;20.00;82.80;;;;;;5040360;28;20040;-77
2021/09/07 04:46:29;;;;;;;32.17;13.73;;;19.90;82.80;;;;;;5038386;28;20025;-73
2021/09/07 04:48:55;;;;;;;26.75;13.43;;;19.90;82.80;;;;;;5041599;28;20405;-73
2021/09/07 04:51:21;;;;;;;26.33;14.15;;;19.90;82.80;;;;;;5049171;28;20025;-72
2021/09/07 04:53:47;;;;;;;24.08;13.55;;;19.90;82.90;;;;;;5034427;28;20029;-72
2021/09/07 04:56:13;;;;;;;28.13;13.30;;;19.90;82.90;;;;;;5032491;28;20037;-71
2021/09/07 04:58:38;;;;;;;23.25;13.27;;;19.90;82.80;;;;;;5035736;28;20029;-72
2021/09/07 05:01:04;;;;;;;22.90;12.90;;;19.90;82.70;;;;;;5040942;28;20075;-72
2021/09/07 05:03:30;;;;;;;23.40;13.55;;;19.90;82.60;;;;;;5034569;28;20030;-73
2021/09/07 05:05:55;;;;;;;20.55;12.82;;;19.90;82.50;;;;;;5034943;28;20544;-74
2021/09/07 05:08:21;;;;;;;21.42;13.93;;;19.90;82.60;;;;;;5034380;28;20084;-72
2021/09/07 05:10:46;;;;;;;22.50;12.60;;;19.90;82.50;;;;;;5032259;28;20392;-72
2021/09/07 05:13:12;;;;;;;24.80;13.82;;;19.90;82.40;;;;;;5031018;28;20057;-72
2021/09/07 05:15:38;;;;;;;25.73;13.65;;;19.80;82.20;;;;;;5039082;28;20017;-71
2021/09/07 05:18:03;;;;;;;24.27;13.48;;;19.90;82.20;;;;;;5033817;28;20083;-74
2021/09/07 05:20:29;;;;;;;23.88;13.88;;;19.80;82.20;;;;;;5042957;28;20439;-73
2021/09/07 05:22:54;;;;;;;22.92;13.35;;;19.90;82.40;;;;;;5042799;28;20035;-72
2021/09/07 05:25:20;;;;;;;23.08;11.55;;;19.90;82.20;;;;;;5037275;28;20021;-72
2021/09/07 05:27:46;;;;;;;25.40;11.85;;;19.90;81.90;;;;;;5037722;28;20042;-72
2021/09/07 05:30:11;;;;;;;21.15;12.27;;;19.80;81.60;;;;;;5045532;28;20085;-70
2021/09/07 05:32:38;;;;;;;22.05;13.60;;;19.80;81.50;;;;;;5035378;28;20109;-71
2021/09/07 05:35:05;;;;;;;25.33;13.48;;;19.80;81.70;;;;;;5037482;28;20025;-71
2021/09/07 05:37:31;;;;;;;21.35;13.30;;;19.80;81.90;;;;;;5043983;28;20033;-71
2021/09/07 05:39:56;;;;;;;27.83;14.23;;;19.80;82.10;;;;;;5038627;28;20614;-72
2021/09/07 05:42:22;;;;;;;24.80;13.57;;;19.80;82.30;;;;;;5031419;28;20031;-73
2021/09/07 05:44:47;;;;;;;27.48;12.98;;;19.80;82.50;;;;;;5033970;28;20036;-70
2021/09/07 05:47:13;;;;;;;21.48;13.18;;;19.80;82.60;;;;;;5032823;28;20060;-70
2021/09/07 05:49:38;;;;;;;25.00;13.48;;;19.80;82.80;;;;;;5035135;28;20056;-72
2021/09/07 05:52:04;;;;;;;20.77;13.23;;;19.80;82.90;;;;;;5038056;28;20029;-70
2021/09/07 05:54:30;;;;;;;21.70;13.27;;;19.80;83.10;;;;;;5036346;28;20047;-70
2021/09/07 05:56:57;;;;;;;24.10;13.23;;;19.90;83.20;;;;;;5036270;28;20032;-70
2021/09/07 05:59:25;;;;;;;20.88;13.18;;;19.90;83.30;;;;;;5033957;28;20026;-70
2021/09/07 06:01:51;;;;;;;23.42;12.95;;;19.90;83.30;;;;;;5038252;28;20043;-69
2021/09/07 06:04:16;;;;;;;21.77;12.93;;;19.80;83.10;;;;;;5035355;28;20021;-70
2021/09/07 06:06:42;;;;;;;27.08;13.50;;;19.80;83.10;;;;;;5036512;28;20030;-70
2021/09/07 06:09:07;;;;;;;21.67;13.23;;;19.90;83.20;;;;;;5035654;28;20076;-70
2021/09/07 06:11:33;;;;;;;27.95;13.48;;;19.90;83.30;;;;;;5035688;28;20108;-70
2021/09/07 06:13:59;;;;;;;27.60;13.82;;;19.90;83.40;;;;;;5035434;28;20037;-70
2021/09/07 06:16:24;;;;;;;24.90;13.50;;;19.90;83.40;;;;;;5032064;28;20633;-70
2021/09/07 06:18:50;;;;;;;27.13;12.90;;;20.00;83.40;;;;;;5044610;28;20060;-71
2021/09/07 06:21:16;;;;;;;24.45;12.55;;;19.90;83.40;;;;;;5052404;28;20059;-71
2021/09/07 06:23:41;;;;;;;21.35;13.30;;;19.90;83.40;;;;;;5039483;28;20148;-71
2021/09/07 06:26:07;;;;;;;28.23;12.80;;;20.00;83.40;;;;;;5042443;28;20021;-71
2021/09/07 06:28:32;;;;;;;23.67;12.18;;;20.00;83.00;;;;;;5039423;28;20464;-71
2021/09/07 06:30:58;;;;;;;20.45;12.15;;;19.90;82.80;;;;;;5035444;28;20067;-71
2021/09/07 06:33:24;;;;;;;27.00;11.48;;;20.00;82.70;;;;;;5045840;28;20036;-71
2021/09/07 06:35:49;;;;;;;20.30;11.73;;;20.00;82.60;;;;;;5040118;28;20060;-71
2021/09/07 06:38:15;;;;;;;18.60;11.23;;;19.90;82.50;;;;;;5041800;28;20037;-71
2021/09/07 06:40:41;;;;;;;18.70;11.80;;;19.90;82.40;;;;;;5045993;28;20030;-71
2021/09/07 06:43:07;;;;;;;21.52;11.20;;;19.90;82.40;;;;;;5045556;28;20270;-71
2021/09/07 06:45:33;;;;;;;37.20;13.15;;;20.00;82.70;;;;;;5045428;28;20032;-71
2021/09/07 06:47:58;;;;;;;40.65;13.68;;;20.00;82.60;;;;;;5046171;28;20049;-71
2021/09/07 06:50:24;;;;;;;18.50;11.85;;;20.00;82.70;;;;;;5040902;28;20032;-71
2021/09/07 06:52:50;;;;;;;24.73;11.60;;;20.00;82.60;;;;;;5043243;28;20067;-71
2021/09/07 06:55:15;;;;;;;25.13;12.55;;;20.00;82.70;;;;;;5044533;28;20038;-71
2021/09/07 06:57:41;;;;;;;31.45;12.18;;;20.10;82.80;;;;;;5048652;28;20025;-71
2021/09/07 07:00:07;;;;;;;23.02;12.05;;;20.10;82.90;;;;;;5042468;28;20095;-71
2021/09/07 07:02:40;;;;;;;23.38;12.13;;;20.10;83.00;;;;;;5048075;28;20025;-71
2021/09/07 07:05:07;;;;;;;13.40;9.20;;;20.20;83.20;;;;;;5043307;28;20370;-72
2021/09/07 07:07:33;;;;;;;35.85;11.10;;;20.20;83.20;;;;;;5038653;28;20308;-72
2021/09/07 07:09:58;;;;;;;26.83;11.40;;;20.20;83.00;;;;;;5046250;28;20108;-74
2021/09/07 07:12:24;;;;;;;19.63;9.10;;;20.10;83.00;;;;;;5046288;28;20052;-73
2021/09/07 07:14:49;;;;;;;28.08;11.40;;;20.20;82.90;;;;;;5046459;28;20021;-70
2021/09/07 07:17:15;;;;;;;20.55;11.10;;;20.20;82.60;;;;;;5040120;28;20036;-70
2021/09/07 07:19:41;;;;;;;25.50;11.60;;;20.20;82.70;;;;;;5046035;28;20041;-70
2021/09/07 07:22:07;;;;;;;27.85;12.10;;;20.20;82.90;;;;;;5043382;28;20056;-70
2021/09/07 07:24:32;;;;;;;24.05;12.40;;;20.30;83.00;;;;;;5048738;28;20124;-70
2021/09/07 07:26:58;;;;;;;26.02;12.43;;;20.30;83.10;;;;;;5043282;28;20113;-70
2021/09/07 07:29:24;;;;;;;24.40;12.02;;;20.30;83.10;;;;;;5050630;28;20032;-70
2021/09/07 07:31:49;;;;;;;21.65;11.95;;;20.30;83.20;;;;;;5050855;28;20076;-70
2021/09/07 07:34:17;;;;;;;21.00;11.98;;;20.30;83.10;;;;;;5051697;28;20507;-70
2021/09/07 07:36:43;;;;;;;19.98;11.60;;;20.30;83.60;;;;;;5041047;28;20081;-70
2021/09/07 07:39:08;;;;;;;21.58;12.45;;;20.40;82.90;;;;;;5051540;28;20060;-70
2021/09/07 07:41:34;;;;;;;22.83;12.40;;;20.40;83.00;;;;;;5041496;28;20033;-70
2021/09/07 07:43:59;;;;;;;15.82;10.10;;;20.40;82.90;;;;;;5047884;28;20025;-70
2021/09/07 07:46:25;;;;;;;18.67;9.95;;;20.40;82.50;;;;;;5044991;28;20044;-70
2021/09/07 07:48:54;;;;;;;22.67;10.70;;;20.40;82.30;;;;;;5033038;28;20049;-70
2021/09/07 07:51:21;;;;;;;16.92;10.43;;;20.40;81.90;;;;;;5038720;28;20032;-70
2021/09/07 07:53:46;;;;;;;20.90;10.60;;;20.40;81.60;;;;;;5051839;28;20062;-70
2021/09/07 07:56:12;;;;;;;18.70;9.60;;;20.40;81.70;;;;;;5036993;28;20036;-70
2021/09/07 07:58:38;;;;;;;19.02;9.30;;;20.40;81.30;;;;;;5051693;28;20040;-70
2021/09/07 08:01:03;;;;;;;21.20;10.82;;;20.50;81.10;;;;;;5048509;28;20033;-70
2021/09/07 08:03:29;;;;;;;22.05;11.85;;;20.50;81.00;;;;;;5040844;28;20029;-70
2021/09/07 08:05:55;;;;;;;25.05;11.55;;;20.50;81.40;;;;;;5052670;28;20492;-70
2021/09/07 08:08:20;;;;;;;23.92;11.75;;;20.50;81.60;;;;;;5045555;28;20456;-70
2021/09/07 08:10:46;;;;;;;25.27;11.85;;;20.60;81.40;;;;;;5041474;28;20021;-70
2021/09/07 08:13:12;;;;;;;21.33;9.90;;;20.60;81.30;;;;;;5051162;28;20112;-70
2021/09/07 08:15:38;;;;;;;21.05;11.00;;;20.60;81.20;;;;;;5037821;28;20473;-70
2021/09/07 08:18:03;;;;;;;18.77;10.20;;;20.70;81.20;;;;;;5052269;28;20025;-70
2021/09/07 08:20:31;;;;;;;20.23;10.93;;;20.70;81.10;;;;;;5048310;28;20532;-71
2021/09/07 08:22:59;;;;;;;21.02;11.02;;;20.70;80.70;;;;;;5039412;28;20033;-70
2021/09/07 08:25:25;;;;;;;20.70;10.48;;;20.80;80.60;;;;;;5051263;28;20495;-70
2021/09/07 08:27:50;;;;;;;18.27;10.18;;;20.80;80.40;;;;;;5034511;28;20037;-70
2021/09/07 08:30:16;;;;;;;25.05;11.45;;;20.80;80.60;;;;;;5038278;28;20021;-70
2021/09/07 08:32:43;;;;;;;23.38;10.90;;;20.80;80.20;;;;;;5052465;28;20032;-71
2021/09/07 08:35:10;;;;;;;19.23;9.75;;;20.90;80.70;;;;;;5050248;28;20033;-69
2021/09/07 08:37:36;;;;;;;19.90;10.93;;;20.90;80.20;;;;;;5051581;28;20029;-69
2021/09/07 08:40:03;;;;;;;17.02;9.25;;;20.90;80.40;;;;;;5050140;28;20037;-69
2021/09/07 08:42:29;;;;;;;15.98;10.05;;;21.00;80.40;;;;;;5035043;28;20036;-69
2021/09/07 08:44:56;;;;;;;18.48;9.98;;;21.00;80.00;;;;;;5034906;28;20029;-69
2021/09/07 08:47:25;;;;;;;17.95;10.38;;;21.10;79.70;;;;;;5031495;28;20053;-71
2021/09/07 08:49:51;;;;;;;19.98;11.38;;;21.00;79.90;;;;;;5033944;28;20144;-71
2021/09/07 08:52:19;;;;;;;19.15;10.23;;;21.10;80.20;;;;;;5035950;28;20104;-71
2021/09/07 08:54:46;;;;;;;21.38;11.63;;;21.20;80.50;;;;;;5032000;28;20032;-71
2021/09/07 08:57:11;;;;;;;23.63;11.52;;;21.20;80.40;;;;;;5034189;28;20098;-71
2021/09/07 08:59:37;;;;;;;20.30;10.43;;;21.30;80.70;;;;;;5035520;28;20045;-71
2021/09/07 09:02:14;;;;;;;19.00;9.95;;;21.30;81.20;;;;;;5031934;28;20033;-71
2021/09/07 09:04:43;;;;;;;23.20;10.40;;;21.40;79.80;;;;;;5034278;28;20035;-71
2021/09/07 09:07:20;;;;;;;16.10;9.82;;;21.40;79.70;;;;;;5034579;28;20040;-71
2021/09/07 09:09:49;;;;;;;18.20;10.20;;;21.40;80.10;;;;;;5035458;28;20044;-71
2021/09/07 09:12:15;;;;;;;19.23;9.50;;;21.40;79.10;;;;;;5035001;28;20021;-71
2021/09/07 09:14:46;;;;;;;16.77;9.55;;;21.50;79.00;;;;;;5033497;28;20031;-71
2021/09/07 09:17:18;;;;;;;15.00;8.63;;;21.50;79.40;;;;;;5031964;28;20508;-72
2021/09/07 09:19:57;;;;;;;23.77;10.13;;;21.50;79.00;;;;;;5031706;28;20116;-71
2021/09/07 09:22:39;;;;;;;35.33;10.35;;;21.60;79.00;;;;;;5039327;28;20049;-71
2021/09/07 09:25:23;;;;;;;17.63;9.25;;;21.70;78.50;;;;;;5039758;28;20029;-72
2021/09/07 09:27:56;;;;;;;19.13;9.27;;;21.80;78.30;;;;;;5036539;28;20092;-70
2021/09/07 09:30:29;;;;;;;15.95;9.07;;;21.80;77.70;;;;;;5041053;28;20028;-72
2021/09/07 09:32:58;;;;;;;17.13;9.75;;;21.80;77.30;;;;;;5054074;28;20044;-72
2021/09/07 09:35:24;;;;;;;20.02;9.73;;;21.80;77.00;;;;;;5053220;28;20111;-72
2021/09/07 09:38:05;;;;;;;19.52;8.27;;;21.80;76.50;;;;;;5046415;28;20465;-71
2021/09/07 09:40:33;;;;;;;15.70;7.70;;;21.90;76.70;;;;;;5034722;28;20492;-72
2021/09/07 09:43:18;;;;;;;15.05;8.38;;;21.90;76.50;;;;;;5037680;28;20044;-71
2021/09/07 09:45:44;;;;;;;14.30;7.85;;;22.00;76.00;;;;;;5037154;28;20029;-72
2021/09/07 09:48:24;;;;;;;15.52;8.63;;;22.00;76.20;;;;;;5037734;28;20107;-72
2021/09/07 09:50:51;;;;;;;17.70;7.40;;;22.10;76.20;;;;;;5040640;28;20026;-72
2021/09/07 09:53:19;;;;;;;17.88;7.78;;;22.10;76.30;;;;;;5038555;28;20041;-72
2021/09/07 09:55:47;;;;;;;16.48;8.38;;;22.20;75.80;;;;;;5036295;28;20539;-72
2021/09/07 09:58:17;;;;;;;16.52;8.77;;;22.20;75.90;;;;;;5035356;28;20041;-72
2021/09/07 10:00:47;;;;;;;18.00;8.15;;;22.30;76.30;;;;;;5037981;28;20049;-71
2021/09/07 10:03:14;;;;;;;9.70;5.53;;;22.30;75.50;;;;;;5035164;28;20103;-72
2021/09/07 10:05:41;;;;;;;13.80;7.78;;;22.40;75.00;;;;;;5037629;28;20079;-72
2021/09/07 10:08:10;;;;;;;16.15;7.90;;;22.40;74.50;;;;;;5037581;28;20520;-72
2021/09/07 10:11:03;;;;;;;13.23;7.00;;;22.40;74.30;;;;;;5035190;28;20021;-72
2021/09/07 10:13:32;;;;;;;12.65;6.07;;;22.40;74.40;;;;;;5037362;28;20037;-72
2021/09/07 10:16:06;;;;;;;16.48;8.30;;;22.30;74.80;;;;;;5039951;28;20033;-72
2021/09/07 10:23:50;;;;;;;14.60;6.65;;;22.50;75.00;;;;;;5045169;28;20036;-71
2021/09/07 10:26:16;;;;;;;17.42;8.18;;;22.50;74.60;;;;;;5043881;28;20112;-71
2021/09/07 10:28:44;;;;;;;14.13;7.63;;;22.50;73.90;;;;;;5043707;28;20079;-71
2021/09/07 10:31:14;;;;;;;15.05;8.07;;;22.50;73.50;;;;;;5038556;28;20438;-72
2021/09/07 10:33:44;;;;;;;15.20;8.43;;;22.60;73.10;;;;;;5034568;28;20064;-71
2021/09/07 10:36:12;;;;;;;22.52;9.05;;;22.60;74.20;;;;;;5033547;28;20485;-71
2021/09/07 10:39:24;;;;;;;16.90;8.88;;;22.70;73.70;;;;;;5043628;28;20099;-71
2021/09/07 10:41:50;;;;;;;22.80;10.20;;;22.60;74.00;;;;;;5040730;28;20035;-71
2021/09/07 10:44:28;;;;;;;22.42;9.50;;;22.70;73.90;;;;;;5037343;28;20029;-71
2021/09/07 10:46:55;;;;;;;18.20;8.43;;;22.80;73.80;;;;;;5032431;28;20083;-71
2021/09/07 10:49:33;;;;;;;18.83;8.90;;;22.90;73.20;;;;;;5046908;28;20041;-71
2021/09/07 10:52:08;;;;;;;23.95;10.10;;;22.90;73.50;;;;;;5044577;28;20037;-71
2021/09/07 10:54:47;;;;;;;15.52;6.57;;;23.00;73.50;;;;;;5035962;28;20033;-71
2021/09/07 10:57:31;;;;;;;13.40;7.22;;;23.10;73.80;;;;;;5034660;28;20397;-71
2021/09/07 10:59:58;;;;;;;15.90;7.88;;;23.10;74.00;;;;;;5037257;28;20017;-71
2021/09/07 11:02:35;;;;;;;21.15;10.63;;;23.00;73.90;;;;;;5036194;28;20060;-71
2021/09/07 11:05:05;;;;;;;21.27;9.60;;;23.00;73.00;;;;;;5045240;28;20029;-69
2021/09/07 11:07:48;;;;;;;19.20;9.05;;;23.10;72.50;;;;;;5035758;28;20057;-69
2021/09/07 11:10:16;;;;;;;20.92;8.50;;;23.20;72.80;;;;;;5035277;28;20034;-69
2021/09/07 11:13:01;;;;;;;19.75;9.65;;;23.30;73.30;;;;;;5039951;28;20033;-70
2021/09/07 11:15:32;;;;;;;18.45;10.00;;;23.30;73.40;;;;;;5043581;28;20033;-70
2021/09/07 11:18:01;;;;;;;15.05;8.32;;;23.40;73.10;;;;;;5041521;28;20040;-70
2021/09/07 11:20:33;;;;;;;16.27;8.30;;;23.50;73.10;;;;;;5033756;28;20031;-69
2021/09/07 11:23:17;;;;;;;19.73;8.88;;;23.50;73.30;;;;;;5041758;28;20045;-69
2021/09/07 11:25:48;;;;;;;13.50;7.80;;;23.60;73.20;;;;;;5044362;28;20032;-69
2021/09/07 11:28:15;;;;;;;14.30;7.63;;;23.70;73.20;;;;;;5036484;28;20049;-69
2021/09/07 11:30:51;;;;;;;14.10;8.68;;;23.70;73.60;;;;;;5034191;28;20053;-69
2021/09/07 11:33:18;;;;;;;14.68;8.30;;;23.70;73.60;;;;;;5032067;28;20465;-68
2021/09/07 11:35:54;;;;;;;12.27;6.85;;;23.70;74.20;;;;;;5040509;28;20024;-68
2021/09/07 11:38:21;;;;;;;14.50;6.60;;;23.70;74.40;;;;;;5034714;28;20033;-68
2021/09/07 11:40:49;;;;;;;17.17;8.57;;;23.60;74.80;;;;;;5033413;28;20502;-68
2021/09/07 11:43:29;;;;;;;7.43;3.97;;;23.70;74.50;;;;;;5036540;28;20040;-68
2021/09/07 11:46:13;;;;;;;19.00;9.20;;;23.70;75.10;;;;;;5033284;28;20029;-68
2021/09/07 11:48:41;;;;;;;21.33;8.73;;;23.70;74.70;;;;;;5036441;28;20043;-68
2021/09/07 11:51:08;;;;;;;18.48;8.57;;;23.70;74.60;;;;;;5037360;28;20381;-68
2021/09/07 11:53:34;;;;;;;15.23;9.75;;;23.70;74.60;;;;;;5040602;28;20042;-69
2021/09/07 11:56:00;;;;;;;21.95;9.88;;;23.70;73.80;;;;;;5038187;28;20037;-69
2021/09/07 11:58:35;;;;;;;20.38;10.55;;;23.80;74.00;;;;;;5041716;28;20412;-68
2021/09/07 12:01:04;;;;;;;18.55;11.38;;;23.90;74.00;;;;;;5038231;28;20029;-68
2021/09/07 12:04:03;;;;;;;15.18;8.45;;;24.00;73.90;;;;;;5039389;28;20116;-69
2021/09/07 12:06:31;;;;;;;21.90;8.82;;;24.20;73.40;;;;;;5037404;28;20029;-68
2021/09/07 12:09:22;;;;;;;17.48;8.60;;;24.20;73.60;;;;;;5038337;28;20056;-68
2021/09/07 12:12:03;;;;;;;16.05;8.30;;;24.30;73.80;;;;;;5033667;28;20033;-69
2021/09/07 12:14:36;;;;;;;17.35;9.40;;;24.30;74.00;;;;;;5033175;28;20039;-69
2021/09/07 12:17:03;;;;;;;17.17;9.48;;;24.30;73.90;;;;;;5032738;28;20036;-69
2021/09/07 12:19:34;;;;;;;16.27;9.15;;;24.30;73.60;;;;;;5033128;28;20035;-69
2021/09/07 12:22:06;;;;;;;14.50;8.45;;;24.40;73.20;;;;;;5039722;28;20147;-69
2021/09/07 12:24:32;;;;;;;15.38;7.85;;;24.40;73.60;;;;;;5038948;28;20393;-69
2021/09/07 12:26:58;;;;;;;14.85;8.93;;;24.40;73.30;;;;;;5043826;28;20037;-70
2021/09/07 12:29:24;;;;;;;16.52;8.65;;;24.60;73.30;;;;;;5033906;28;20167;-69
2021/09/07 12:32:01;;;;;;;23.92;10.13;;;24.60;73.50;;;;;;5043737;28;20559;-69
2021/09/07 12:34:26;;;;;;;17.33;7.97;;;24.60;72.90;;;;;;5051302;28;20025;-69
2021/09/07 12:36:52;;;;;;;21.33;7.50;;;24.70;73.00;;;;;;5048052;28;20029;-69
2021/09/07 12:39:18;;;;;;;16.60;7.18;;;24.80;73.10;;;;;;5033296;28;20124;-70